Aviation Digital Data Service (ADDS)

Output produced by TAFs form (0107 UTC 24 June 2018)
found at http://www.aviationweather.gov/adds/tafs/
 
KCHS 240056Z 20006KT 10SM FEW140 SCT250 27/24 A2992 RMK AO2 SLP133 T02670244
KCHS 232323Z 2400/2424 26008KT P6SM FEW040 SCT200 
     FM240200 22005KT P6SM FEW040 
     FM241500 25008KT P6SM FEW050